createdAt,value
2017-12-03T00:01:03.946Z,2.18
2017-12-03T00:02:31.074Z,2.18
2017-12-03T00:03:59.272Z,2.17
2017-12-03T00:05:26.542Z,2.15
2017-12-03T00:06:53.633Z,2.14
2017-12-03T00:08:20.896Z,2.14
2017-12-03T00:09:48.305Z,2.16
2017-12-03T00:11:14.300Z,2.17
2017-12-03T00:12:41.433Z,2.18
2017-12-03T00:14:08.602Z,2.21
2017-12-03T00:15:36.769Z,2.19
2017-12-03T00:17:08.955Z,2.17
2017-12-03T00:18:30.161Z,2.17
2017-12-03T00:19:58.384Z,2.19
2017-12-03T00:21:25.531Z,2.21
2017-12-03T00:22:52.610Z,2.23
2017-12-03T00:24:20.060Z,2.23
2017-12-03T00:25:46.073Z,2.25
2017-12-03T00:27:13.263Z,2.26
2017-12-03T00:28:40.322Z,2.27
2017-12-03T00:30:08.261Z,2.28
2017-12-03T00:31:35.569Z,2.29
2017-12-03T00:33:02.704Z,2.29
2017-12-03T00:34:29.970Z,2.28
2017-12-03T00:35:56.097Z,2.28
2017-12-03T00:37:23.159Z,2.28
2017-12-03T00:38:50.384Z,2.28
2017-12-03T00:40:17.601Z,2.30
2017-12-03T00:41:45.902Z,2.30
2017-12-03T00:43:11.980Z,2.30
2017-12-03T00:44:40.314Z,2.30
2017-12-03T00:46:06.474Z,2.29
2017-12-03T00:47:33.463Z,2.26
2017-12-03T00:49:01.690Z,2.27
2017-12-03T00:50:28.933Z,2.25
2017-12-03T00:51:55.082Z,2.21
2017-12-03T00:53:22.182Z,2.22
2017-12-03T00:54:50.531Z,2.23
2017-12-03T00:56:16.875Z,2.25
2017-12-03T00:57:44.741Z,2.25
2017-12-03T00:59:11.025Z,2.24
2017-12-03T01:00:38.102Z,2.24
2017-12-03T01:02:06.246Z,2.24
2017-12-03T01:03:32.388Z,2.23
2017-12-03T01:04:59.642Z,2.23
2017-12-03T01:06:27.856Z,2.24
2017-12-03T01:07:54.986Z,2.23
2017-12-03T01:09:21.199Z,2.23
2017-12-03T01:10:49.634Z,2.22
2017-12-03T01:12:16.846Z,2.21
2017-12-03T01:13:43.714Z,2.22
2017-12-03T01:15:10.856Z,2.24
2017-12-03T01:16:37.023Z,2.24
2017-12-03T01:18:04.194Z,2.22
2017-12-03T01:19:32.375Z,2.23
2017-12-03T01:20:59.585Z,2.24
2017-12-03T01:22:25.708Z,2.24
2017-12-03T01:23:52.936Z,2.24
2017-12-03T01:25:20.073Z,2.25
2017-12-03T01:26:48.392Z,2.24
2017-12-03T01:28:14.488Z,2.23
2017-12-03T01:29:41.604Z,2.22
2017-12-03T01:31:08.780Z,2.21
2017-12-03T01:32:37.024Z,2.23
2017-12-03T01:34:04.339Z,2.25
2017-12-03T01:35:30.308Z,2.24
2017-12-03T01:36:57.492Z,2.25
2017-12-03T01:38:25.653Z,2.26
2017-12-03T01:39:52.796Z,2.26
2017-12-03T01:41:18.778Z,2.26
2017-12-03T01:42:46.927Z,2.27
2017-12-03T01:44:14.204Z,2.28
2017-12-03T01:45:41.283Z,2.28
2017-12-03T01:47:07.190Z,2.26
2017-12-03T01:48:35.484Z,2.25
2017-12-03T01:50:01.442Z,2.24
2017-12-03T01:51:28.682Z,2.25
2017-12-03T01:52:55.840Z,2.23
2017-12-03T01:54:24.020Z,2.23
2017-12-03T01:55:51.274Z,2.21
2017-12-03T01:57:18.200Z,2.19
2017-12-03T01:58:45.422Z,2.20
2017-12-03T02:00:11.594Z,2.21
2017-12-03T02:01:38.635Z,2.23
2017-12-03T02:03:05.751Z,2.24
2017-12-03T02:04:32.808Z,2.26
2017-12-03T02:06:00.036Z,2.29
2017-12-03T02:07:28.222Z,2.30
2017-12-03T02:08:55.620Z,2.29
2017-12-03T02:10:21.810Z,2.28
2017-12-03T02:11:50.075Z,2.28
2017-12-03T02:13:17.338Z,2.27
2017-12-03T02:14:43.553Z,2.24
2017-12-03T02:16:11.867Z,2.24
2017-12-03T02:17:38.241Z,2.25
2017-12-03T02:19:06.390Z,2.25
2017-12-03T02:20:32.483Z,2.26
2017-12-03T02:22:00.466Z,2.23
2017-12-03T02:23:27.570Z,2.25
2017-12-03T02:24:54.550Z,2.26
2017-12-03T02:26:21.666Z,2.28
2017-12-03T02:27:47.925Z,2.30
2017-12-03T02:29:15.264Z,2.33
2017-12-03T02:30:43.440Z,2.31
2017-12-03T02:32:10.819Z,2.32
2017-12-03T02:33:36.808Z,2.33
2017-12-03T02:35:04.906Z,2.33
2017-12-03T02:36:31.101Z,2.34
2017-12-03T02:37:58.280Z,2.34
2017-12-03T02:39:26.408Z,2.34
2017-12-03T02:40:52.559Z,2.34
2017-12-03T02:42:19.672Z,2.36
2017-12-03T02:43:48.030Z,2.37
2017-12-03T02:45:14.115Z,2.35
2017-12-03T02:46:41.134Z,2.36
2017-12-03T02:48:09.421Z,2.35
2017-12-03T02:49:36.686Z,2.36
2017-12-03T02:51:02.852Z,2.37
2017-12-03T02:52:30.923Z,2.37
2017-12-03T02:53:56.967Z,2.34
2017-12-03T02:55:25.064Z,2.36
2017-12-03T02:56:52.398Z,2.36
2017-12-03T02:58:18.629Z,2.36
2017-12-03T02:59:45.760Z,2.37
2017-12-03T03:01:14.133Z,2.40
2017-12-03T03:02:41.052Z,2.40
2017-12-03T03:04:07.467Z,2.39
2017-12-03T03:05:35.761Z,2.39
2017-12-03T03:07:02.933Z,2.39
2017-12-03T03:08:28.965Z,2.39
2017-12-03T03:09:56.165Z,2.38
2017-12-03T03:11:24.455Z,2.36
2017-12-03T03:12:51.497Z,2.36
2017-12-03T03:14:17.628Z,2.36
2017-12-03T03:15:44.754Z,2.34
2017-12-03T03:17:12.118Z,2.33
2017-12-03T03:18:39.269Z,2.33
2017-12-03T03:20:07.495Z,2.31
2017-12-03T03:21:33.563Z,2.31
2017-12-03T03:23:00.515Z,2.31
2017-12-03T03:24:28.866Z,2.32
2017-12-03T03:25:56.188Z,2.31
2017-12-03T03:27:22.459Z,2.31
2017-12-03T03:28:50.748Z,2.32
2017-12-03T03:30:18.145Z,2.33
2017-12-03T03:31:45.246Z,2.33
2017-12-03T03:33:12.422Z,2.32
2017-12-03T03:34:38.670Z,2.30
2017-12-03T03:36:06.743Z,2.30
2017-12-03T03:37:32.954Z,2.30
2017-12-03T03:39:03.209Z,2.29
2017-12-03T03:40:28.403Z,2.30
2017-12-03T03:41:54.798Z,2.31
2017-12-03T03:43:22.054Z,2.33
2017-12-03T03:44:50.214Z,2.34
2017-12-03T03:46:17.506Z,2.37
2017-12-03T03:47:44.814Z,2.39
2017-12-03T03:49:11.005Z,2.40
2017-12-03T03:50:39.289Z,2.41
2017-12-03T03:52:06.526Z,2.42
2017-12-03T03:53:32.616Z,2.43
2017-12-03T03:55:00.907Z,2.42
2017-12-03T03:56:28.198Z,2.42
2017-12-03T03:57:55.215Z,2.42
2017-12-03T03:59:21.551Z,2.43
2017-12-03T04:00:49.747Z,2.44
2017-12-03T04:02:16.942Z,2.44
2017-12-03T04:03:43.009Z,2.43
2017-12-03T04:05:10.092Z,2.42
2017-12-03T04:06:38.220Z,2.41
2017-12-03T04:08:04.559Z,2.42
2017-12-03T04:09:31.609Z,2.43
2017-12-03T04:10:59.914Z,2.43
2017-12-03T04:12:26.237Z,2.45
2017-12-03T04:13:53.317Z,2.44
2017-12-03T04:15:21.523Z,2.44
2017-12-03T04:16:47.809Z,2.43
2017-12-03T04:18:16.014Z,2.42
2017-12-03T04:19:42.258Z,2.42
2017-12-03T04:21:10.485Z,2.43
2017-12-03T04:22:36.679Z,2.44
2017-12-03T04:24:03.816Z,2.45
2017-12-03T04:25:31.918Z,2.45
2017-12-03T04:26:59.221Z,2.45
2017-12-03T04:28:25.362Z,2.44
2017-12-03T04:29:52.613Z,2.45
2017-12-03T04:31:20.662Z,2.46
2017-12-03T04:32:46.957Z,2.46
2017-12-03T04:34:15.281Z,2.47
2017-12-03T04:35:41.210Z,2.48
2017-12-03T04:37:08.685Z,2.49
2017-12-03T04:38:35.518Z,2.48
2017-12-03T04:40:02.663Z,2.48
2017-12-03T04:41:29.865Z,2.47
2017-12-03T04:42:57.893Z,2.46
2017-12-03T04:44:25.144Z,2.46
2017-12-03T04:45:52.176Z,2.45
2017-12-03T04:47:18.294Z,2.45
2017-12-03T04:48:45.582Z,2.44
2017-12-03T04:50:12.637Z,2.45
2017-12-03T04:51:40.861Z,2.45
2017-12-03T04:53:08.225Z,2.45
2017-12-03T04:54:34.312Z,2.46
2017-12-03T04:56:01.303Z,2.47
2017-12-03T04:57:29.643Z,2.48
2017-12-03T04:58:55.804Z,2.47
2017-12-03T05:00:23.691Z,2.44
2017-12-03T05:01:50.930Z,2.43
2017-12-03T05:03:17.144Z,2.43
2017-12-03T05:04:43.966Z,2.44
2017-12-03T05:06:12.119Z,2.43
2017-12-03T05:07:38.322Z,2.43
2017-12-03T05:09:05.436Z,2.43
2017-12-03T05:10:32.567Z,2.44
2017-12-03T05:11:59.678Z,2.44
2017-12-03T05:13:27.764Z,2.44
2017-12-03T05:14:54.874Z,2.46
2017-12-03T05:16:22.140Z,2.47
2017-12-03T05:17:48.322Z,2.46
2017-12-03T05:19:16.520Z,2.44
2017-12-03T05:20:42.709Z,2.44
2017-12-03T05:22:10.855Z,2.43
2017-12-03T05:23:37.149Z,2.44
2017-12-03T05:25:05.333Z,2.43
2017-12-03T05:26:31.293Z,2.42
2017-12-03T05:27:58.572Z,2.40
2017-12-03T05:29:26.789Z,2.41
2017-12-03T05:30:53.899Z,2.41
2017-12-03T05:32:20.187Z,2.39
2017-12-03T05:33:48.580Z,2.39
2017-12-03T05:35:14.542Z,2.39
2017-12-03T05:36:41.827Z,2.41
2017-12-03T05:38:09.920Z,2.40
2017-12-03T05:39:36.033Z,2.41
2017-12-03T05:41:04.068Z,2.41
2017-12-03T05:42:31.236Z,2.41
2017-12-03T05:43:57.486Z,2.41
2017-12-03T05:45:25.784Z,2.40
2017-12-03T05:46:53.068Z,2.40
2017-12-03T05:48:19.140Z,2.39
2017-12-03T05:49:46.257Z,2.39
2017-12-03T05:51:14.405Z,2.37
2017-12-03T05:52:41.487Z,2.37
2017-12-03T05:54:08.594Z,2.34
2017-12-03T05:55:34.630Z,2.32
2017-12-03T05:57:02.913Z,2.32
2017-12-03T05:58:30.229Z,2.30
2017-12-03T05:59:56.360Z,2.30
2017-12-03T06:01:23.432Z,2.29
2017-12-03T06:02:51.841Z,2.27
2017-12-03T06:04:18.298Z,2.27
2017-12-03T06:05:45.270Z,2.25
2017-12-03T06:07:12.458Z,2.25
2017-12-03T06:08:39.611Z,2.23
2017-12-03T06:10:07.695Z,2.23
2017-12-03T06:11:34.669Z,2.22
2017-12-03T06:13:00.887Z,2.20
2017-12-03T06:14:29.118Z,2.20
2017-12-03T06:15:56.398Z,2.19
2017-12-03T06:17:23.638Z,2.19
2017-12-03T06:18:50.793Z,2.19
2017-12-03T06:20:17.897Z,2.16
2017-12-03T06:21:45.157Z,2.18
2017-12-03T06:23:11.295Z,2.19
2017-12-03T06:24:38.472Z,2.21
2017-12-03T06:26:06.799Z,2.21
2017-12-03T06:27:33.994Z,2.22
2017-12-03T06:28:59.952Z,2.20
2017-12-03T06:30:27.058Z,2.21
2017-12-03T06:31:55.235Z,2.21
2017-12-03T06:33:21.512Z,2.20
2017-12-03T06:34:48.890Z,2.20
2017-12-03T06:36:17.171Z,2.21
2017-12-03T06:37:44.479Z,2.23
2017-12-03T06:39:11.756Z,2.22
2017-12-03T06:40:37.981Z,2.23
2017-12-03T06:42:06.175Z,2.22
2017-12-03T06:43:32.168Z,2.23
2017-12-03T06:45:00.405Z,2.24
2017-12-03T06:46:26.671Z,2.21
2017-12-03T06:47:54.935Z,2.21
2017-12-03T06:49:21.109Z,2.21
2017-12-03T06:50:48.467Z,2.20
2017-12-03T06:52:15.566Z,2.20
2017-12-03T06:53:43.801Z,2.20
2017-12-03T06:55:11.244Z,2.22
2017-12-03T06:56:37.556Z,2.24
2017-12-03T06:58:05.667Z,2.25
2017-12-03T06:59:31.112Z,2.26
2017-12-03T07:00:59.263Z,2.25
2017-12-03T07:02:26.463Z,2.24
2017-12-03T07:03:52.738Z,2.22
2017-12-03T07:05:21.097Z,2.22
2017-12-03T07:06:48.133Z,2.23
2017-12-03T07:08:14.096Z,2.22
2017-12-03T07:09:42.282Z,2.20
2017-12-03T07:11:09.434Z,2.20
2017-12-03T07:12:35.634Z,2.20
2017-12-03T07:14:02.766Z,2.21
2017-12-03T07:15:29.963Z,2.20
2017-12-03T07:16:58.183Z,2.21
2017-12-03T07:18:24.566Z,2.21
2017-12-03T07:19:52.794Z,2.22
2017-12-03T07:21:19.028Z,2.23
2017-12-03T07:22:46.328Z,2.25
2017-12-03T07:24:14.654Z,2.24
2017-12-03T07:25:40.463Z,2.23
2017-12-03T07:27:08.761Z,2.22
2017-12-03T07:28:34.925Z,2.21
2017-12-03T07:30:03.034Z,2.20
2017-12-03T07:31:30.362Z,2.21
2017-12-03T07:32:56.574Z,2.20
2017-12-03T07:34:23.978Z,2.20
2017-12-03T07:35:52.186Z,2.19
2017-12-03T07:37:18.326Z,2.19
2017-12-03T07:38:46.629Z,2.20
2017-12-03T07:40:13.829Z,2.19
2017-12-03T07:41:39.956Z,2.21
2017-12-03T07:43:07.990Z,2.22
2017-12-03T07:44:35.325Z,2.23
2017-12-03T07:46:02.322Z,2.23
2017-12-03T07:47:31.472Z,2.24
2017-12-03T07:48:55.691Z,2.22
2017-12-03T07:50:22.853Z,2.22
2017-12-03T07:51:50.248Z,2.22
2017-12-03T07:53:17.492Z,2.22
2017-12-03T07:54:44.755Z,2.23
2017-12-03T07:56:12.876Z,2.22
2017-12-03T07:57:39.130Z,2.23
2017-12-03T07:59:06.226Z,2.24
2017-12-03T08:00:33.473Z,2.22
2017-12-03T08:02:00.775Z,2.23
2017-12-03T08:03:29.149Z,2.24
2017-12-03T08:04:55.330Z,2.25
2017-12-03T08:06:23.642Z,2.26
2017-12-03T08:07:49.978Z,2.28
2017-12-03T08:09:17.194Z,2.27
2017-12-03T08:10:44.414Z,2.26
2017-12-03T08:12:12.449Z,2.26
2017-12-03T08:13:39.814Z,2.26
2017-12-03T08:15:06.864Z,2.26
2017-12-03T08:16:32.936Z,2.26
2017-12-03T08:18:00.139Z,2.26
2017-12-03T08:19:28.302Z,2.26
2017-12-03T08:20:54.572Z,2.25
2017-12-03T08:22:21.849Z,2.24
2017-12-03T08:23:49.142Z,2.24
2017-12-03T08:25:17.023Z,2.23
2017-12-03T08:26:44.407Z,2.24
2017-12-03T08:28:10.450Z,2.23
2017-12-03T08:29:37.656Z,2.22
2017-12-03T08:31:04.859Z,2.23
2017-12-03T08:32:31.947Z,2.23
2017-12-03T08:33:59.913Z,2.23
2017-12-03T08:35:26.120Z,2.24
2017-12-03T08:36:53.335Z,2.25
2017-12-03T08:38:20.713Z,2.25
2017-12-03T08:39:48.741Z,2.26
2017-12-03T08:41:15.033Z,2.26
2017-12-03T08:42:43.250Z,2.27
2017-12-03T08:44:09.398Z,2.28
2017-12-03T08:45:37.546Z,2.27
2017-12-03T08:47:03.715Z,2.25
2017-12-03T08:48:31.759Z,2.25
2017-12-03T08:49:57.950Z,2.26
2017-12-03T08:51:25.096Z,2.27
2017-12-03T08:52:52.431Z,2.28
2017-12-03T08:54:19.614Z,2.28
2017-12-03T08:55:46.735Z,2.27
2017-12-03T08:57:13.946Z,2.27
2017-12-03T08:58:41.098Z,2.27
2017-12-03T09:00:08.336Z,2.28
2017-12-03T09:01:35.330Z,2.29
2017-12-03T09:03:02.483Z,2.29
2017-12-03T09:04:29.835Z,2.29
2017-12-03T09:05:57.930Z,2.30
2017-12-03T09:07:25.275Z,2.29
2017-12-03T09:08:51.528Z,2.30
2017-12-03T09:10:19.483Z,2.31
2017-12-03T09:11:45.750Z,2.31
2017-12-03T09:13:13.041Z,2.31
2017-12-03T09:14:41.513Z,2.31
2017-12-03T09:16:07.583Z,2.32
2017-12-03T09:17:34.810Z,2.33
2017-12-03T09:19:02.970Z,2.32
2017-12-03T09:20:28.941Z,2.33
2017-12-03T09:21:56.367Z,2.34
2017-12-03T09:23:23.535Z,2.36
2017-12-03T09:24:50.730Z,2.36
2017-12-03T09:26:18.050Z,2.34
2017-12-03T09:27:46.163Z,2.35
2017-12-03T09:29:12.285Z,2.34
2017-12-03T09:30:40.481Z,2.34
2017-12-03T09:32:06.779Z,2.34
2017-12-03T09:33:34.874Z,2.34
2017-12-03T09:35:00.796Z,2.32
2017-12-03T09:36:28.002Z,2.33
2017-12-03T09:37:55.313Z,2.34
2017-12-03T09:39:22.658Z,2.35
2017-12-03T09:40:50.808Z,2.35
2017-12-03T09:42:18.051Z,2.35
2017-12-03T09:43:45.270Z,2.34
2017-12-03T09:45:11.522Z,2.33
2017-12-03T09:46:38.682Z,2.32
2017-12-03T09:48:05.757Z,2.32
2017-12-03T09:49:33.867Z,2.31
2017-12-03T09:51:00.036Z,2.31
2017-12-03T09:52:28.102Z,2.30
2017-12-03T09:53:55.392Z,2.29
2017-12-03T09:55:21.615Z,2.29
2017-12-03T09:56:48.838Z,2.29
2017-12-03T09:58:17.064Z,2.28
2017-12-03T09:59:44.380Z,2.28
2017-12-03T10:01:11.660Z,2.27
2017-12-03T10:02:38.628Z,2.25
2017-12-03T10:04:04.907Z,2.24
2017-12-03T10:05:32.078Z,2.22
2017-12-03T10:06:59.307Z,2.21
2017-12-03T10:08:32.607Z,2.22
2017-12-03T10:09:54.603Z,2.22
2017-12-03T10:11:20.675Z,2.21
2017-12-03T10:12:47.870Z,2.20
2017-12-03T10:14:15.959Z,2.20
2017-12-03T10:15:42.958Z,2.21
2017-12-03T10:17:10.009Z,2.23
2017-12-03T10:18:37.222Z,2.25
2017-12-03T10:20:04.486Z,2.26
2017-12-03T10:21:31.845Z,2.28
2017-12-03T10:22:58.146Z,2.28
2017-12-03T10:24:26.366Z,2.30
2017-12-03T10:25:52.601Z,2.31
2017-12-03T10:27:19.915Z,2.32
2017-12-03T10:28:48.242Z,2.33
2017-12-03T10:30:14.376Z,2.34
2017-12-03T10:31:41.397Z,2.36
2017-12-03T10:33:09.558Z,2.37
2017-12-03T10:34:35.791Z,2.37
2017-12-03T10:36:02.876Z,2.38
2017-12-03T10:37:30.998Z,2.39
2017-12-03T10:38:57.058Z,2.40
2017-12-03T10:40:25.282Z,2.41
2017-12-03T10:41:51.543Z,2.42
2017-12-03T10:43:19.791Z,2.42
2017-12-03T10:44:46.076Z,2.42
2017-12-03T10:46:14.356Z,2.42
2017-12-03T10:47:40.483Z,2.41
2017-12-03T10:49:07.633Z,2.43
2017-12-03T10:50:34.833Z,2.42
2017-12-03T10:52:01.996Z,2.41
2017-12-03T10:53:30.301Z,2.40
2017-12-03T10:54:57.470Z,2.39
2017-12-03T10:56:23.675Z,2.39
2017-12-03T10:57:50.876Z,2.38
2017-12-03T10:59:18.994Z,2.37
2017-12-03T11:00:45.173Z,2.37
2017-12-03T11:02:12.302Z,2.37
2017-12-03T11:03:39.618Z,2.37
2017-12-03T11:05:06.859Z,2.36
2017-12-03T11:06:35.026Z,2.35
2017-12-03T11:08:01.917Z,2.35
2017-12-03T11:09:28.179Z,2.36
2017-12-03T11:10:55.338Z,2.37
2017-12-03T11:12:23.475Z,2.38
2017-12-03T11:13:50.699Z,2.37
2017-12-03T11:15:16.915Z,2.38
2017-12-03T11:16:44.016Z,2.37
2017-12-03T11:18:12.230Z,2.36
2017-12-03T11:19:38.474Z,2.38
2017-12-03T11:21:06.705Z,2.40
2017-12-03T11:22:32.713Z,2.41
2017-12-03T11:24:00.932Z,2.41
2017-12-03T11:25:28.069Z,2.42
2017-12-03T11:26:55.136Z,2.44
2017-12-03T11:28:22.432Z,2.45
2017-12-03T11:29:49.514Z,2.44
2017-12-03T11:31:15.783Z,2.45
2017-12-03T11:32:42.888Z,2.46
2017-12-03T11:34:09.992Z,2.48
2017-12-03T11:35:38.245Z,2.50
2017-12-03T11:37:05.189Z,2.50
2017-12-03T11:38:32.275Z,2.50
2017-12-03T11:39:58.496Z,2.50
2017-12-03T11:41:25.829Z,2.48
2017-12-03T11:42:54.116Z,2.47
2017-12-03T11:44:21.331Z,2.47
2017-12-03T11:45:48.436Z,2.49
2017-12-03T11:47:14.696Z,2.50
2017-12-03T11:48:42.871Z,2.50
2017-12-03T11:50:09.071Z,2.49
2017-12-03T11:51:37.266Z,2.48
2017-12-03T11:53:03.318Z,2.49
2017-12-03T11:54:31.517Z,2.47
2017-12-03T11:55:57.826Z,2.47
2017-12-03T11:57:24.919Z,2.47
2017-12-03T11:58:53.226Z,2.48
2017-12-03T12:00:20.553Z,2.48
2017-12-03T12:01:47.653Z,2.48
2017-12-03T12:03:13.868Z,2.49
2017-12-03T12:04:41.100Z,2.50
2017-12-03T12:06:08.130Z,2.50
2017-12-03T12:07:36.404Z,2.49
2017-12-03T12:09:02.543Z,2.49
2017-12-03T12:10:30.712Z,2.50
2017-12-03T12:11:56.951Z,2.50
2017-12-03T12:13:25.068Z,2.50
2017-12-03T12:14:52.318Z,2.51
2017-12-03T12:16:18.580Z,2.52
2017-12-03T12:17:45.685Z,2.53
2017-12-03T12:19:12.992Z,2.55
2017-12-03T12:20:41.154Z,2.55
2017-12-03T12:22:07.325Z,2.56
2017-12-03T12:23:34.513Z,2.56
2017-12-03T12:25:01.617Z,2.58
2017-12-03T12:26:29.690Z,2.59
2017-12-03T12:27:57.033Z,2.59
2017-12-03T12:29:23.293Z,2.60
2017-12-03T12:30:50.667Z,2.60
2017-12-03T12:32:17.847Z,2.61
2017-12-03T12:33:45.059Z,2.60
2017-12-03T12:35:13.321Z,2.60
2017-12-03T12:36:40.522Z,2.60
2017-12-03T12:38:07.736Z,2.60
2017-12-03T12:39:33.824Z,2.61
2017-12-03T12:41:01.831Z,2.63
2017-12-03T12:42:28.981Z,2.62
2017-12-03T12:43:56.191Z,2.61
2017-12-03T12:45:22.383Z,2.62
2017-12-03T12:46:49.766Z,2.61
2017-12-03T12:48:16.904Z,2.62
2017-12-03T12:49:45.245Z,2.62
2017-12-03T12:51:11.347Z,2.64
2017-12-03T12:52:38.519Z,2.66
2017-12-03T12:54:05.646Z,2.67
2017-12-03T12:55:33.667Z,2.69
2017-12-03T12:57:00.742Z,2.68
2017-12-03T12:58:27.851Z,2.68
2017-12-03T12:59:54.933Z,2.69
2017-12-03T13:01:22.012Z,2.69
2017-12-03T13:02:49.033Z,2.70
2017-12-03T13:04:15.102Z,2.70
2017-12-03T13:05:42.319Z,2.71
2017-12-03T13:07:09.465Z,2.71
2017-12-03T13:08:37.730Z,2.72
2017-12-03T13:10:03.856Z,2.72
2017-12-03T13:11:31.948Z,2.72
2017-12-03T13:12:59.163Z,2.73
2017-12-03T13:14:26.442Z,2.74
2017-12-03T13:15:52.696Z,2.74
2017-12-03T13:17:20.045Z,2.75
2017-12-03T13:18:48.240Z,2.75
2017-12-03T13:20:14.510Z,2.76
2017-12-03T13:21:42.761Z,2.76
2017-12-03T13:23:10.039Z,2.76
2017-12-03T13:24:36.123Z,2.76
2017-12-03T13:26:03.313Z,2.75
2017-12-03T13:27:30.586Z,2.76
2017-12-03T13:28:57.769Z,2.77
2017-12-03T13:30:31.021Z,2.76
2017-12-03T13:31:52.140Z,2.76
2017-12-03T13:33:19.110Z,2.77
2017-12-03T13:34:47.327Z,2.76
2017-12-03T13:36:13.569Z,2.77
2017-12-03T13:37:40.714Z,2.78
2017-12-03T13:39:07.802Z,2.78
2017-12-03T13:40:34.981Z,2.78
2017-12-03T13:42:03.132Z,2.79
2017-12-03T13:43:30.359Z,2.79
2017-12-03T13:44:57.544Z,2.79
2017-12-03T13:46:23.680Z,2.79
2017-12-03T13:47:51.933Z,2.80
2017-12-03T13:49:19.236Z,2.81
2017-12-03T13:50:46.606Z,2.80
2017-12-03T13:52:12.594Z,2.81
2017-12-03T13:53:39.846Z,2.81
2017-12-03T13:55:07.970Z,2.82
2017-12-03T13:56:34.018Z,2.83
2017-12-03T13:58:02.151Z,2.81
2017-12-03T13:59:28.250Z,2.81
2017-12-03T14:00:56.560Z,2.82
2017-12-03T14:02:22.706Z,2.84
2017-12-03T14:03:50.900Z,2.85
2017-12-03T14:05:18.156Z,2.86
2017-12-03T14:06:44.304Z,2.87
2017-12-03T14:08:12.545Z,2.87
2017-12-03T14:09:38.615Z,2.88
2017-12-03T14:11:06.833Z,2.90
2017-12-03T14:12:32.872Z,2.90
2017-12-03T14:13:59.994Z,2.91
2017-12-03T14:15:27.259Z,2.92
2017-12-03T14:16:55.524Z,2.93
2017-12-03T14:18:21.689Z,2.94
2017-12-03T14:19:49.861Z,2.94
2017-12-03T14:21:17.029Z,2.95
2017-12-03T14:22:44.269Z,2.91
2017-12-03T14:24:10.397Z,2.92
2017-12-03T14:25:38.622Z,2.92
2017-12-03T14:27:04.707Z,2.93
2017-12-03T14:28:31.866Z,2.93
2017-12-03T14:29:59.077Z,2.94
2017-12-03T14:31:26.170Z,2.95
2017-12-03T14:32:53.183Z,2.96
2017-12-03T14:34:20.432Z,2.98
2017-12-03T14:35:48.728Z,2.95
2017-12-03T14:37:14.982Z,2.95
2017-12-03T14:38:42.239Z,2.96
2017-12-03T14:40:09.556Z,2.97
2017-12-03T14:41:37.585Z,2.98
2017-12-03T14:43:04.783Z,2.99
2017-12-03T14:44:30.960Z,2.98
2017-12-03T14:45:58.074Z,3.01
2017-12-03T14:47:26.225Z,3.00
2017-12-03T14:48:53.677Z,3.00
2017-12-03T14:50:20.864Z,3.01
2017-12-03T14:51:48.117Z,3.02
2017-12-03T14:53:14.319Z,3.02
2017-12-03T14:54:42.583Z,3.02
2017-12-03T14:56:08.878Z,3.03
2017-12-03T14:57:36.166Z,3.03
2017-12-03T14:59:03.270Z,3.05
2017-12-03T15:00:30.607Z,3.03
2017-12-03T15:01:58.795Z,3.02
2017-12-03T15:03:25.001Z,3.03
2017-12-03T15:04:53.113Z,3.01
2017-12-03T15:06:19.405Z,3.01
2017-12-03T15:07:46.708Z,3.00
2017-12-03T15:09:14.982Z,3.01
2017-12-03T15:10:41.176Z,2.99
2017-12-03T15:12:09.380Z,3.02
2017-12-03T15:13:36.546Z,3.02
2017-12-03T15:15:02.748Z,3.02
2017-12-03T15:16:30.879Z,3.02
2017-12-03T15:17:58.150Z,3.03
2017-12-03T15:19:25.438Z,3.05
2017-12-03T15:20:51.775Z,3.05
2017-12-03T15:22:19.055Z,3.01
2017-12-03T15:23:46.342Z,3.03
2017-12-03T15:25:13.354Z,3.06
2017-12-03T15:26:40.664Z,3.09
2017-12-03T15:28:07.969Z,3.11
2017-12-03T15:29:36.133Z,3.14
2017-12-03T15:31:02.154Z,3.16
2017-12-03T15:32:29.364Z,3.17
2017-12-03T15:33:56.350Z,3.18
2017-12-03T15:35:24.591Z,3.18
2017-12-03T15:36:50.520Z,3.19
2017-12-03T15:38:18.758Z,3.20
2017-12-03T15:39:45.920Z,3.15
2017-12-03T15:41:12.225Z,3.14
2017-12-03T15:42:39.541Z,3.15
2017-12-03T15:44:07.568Z,3.16
2017-12-03T15:45:34.769Z,3.14
2017-12-03T15:47:00.697Z,3.13
2017-12-03T15:48:28.932Z,3.16
2017-12-03T15:49:56.011Z,3.16
2017-12-03T15:51:22.204Z,3.19
2017-12-03T15:52:50.468Z,3.20
2017-12-03T15:54:17.722Z,3.21
2017-12-03T15:55:44.902Z,3.22
2017-12-03T15:57:11.969Z,3.22
2017-12-03T15:58:39.254Z,3.23
2017-12-03T16:00:05.353Z,3.23
2017-12-03T16:01:32.511Z,3.24
2017-12-03T16:03:00.702Z,3.25
2017-12-03T16:04:26.813Z,3.26
2017-12-03T16:05:55.089Z,3.27
2017-12-03T16:07:22.333Z,3.28
2017-12-03T16:08:48.407Z,3.29
2017-12-03T16:10:15.767Z,3.30
2017-12-03T16:11:44.038Z,3.30
2017-12-03T16:13:10.215Z,3.33
2017-12-03T16:14:38.375Z,3.34
2017-12-03T16:16:04.611Z,3.35
2017-12-03T16:17:32.604Z,3.36
2017-12-03T16:18:59.762Z,3.35
2017-12-03T16:20:27.034Z,3.36
2017-12-03T16:21:54.341Z,3.35
2017-12-03T16:23:20.636Z,3.34
2017-12-03T16:24:48.765Z,3.36
2017-12-03T16:26:14.998Z,3.36
2017-12-03T16:27:42.150Z,3.38
2017-12-03T16:29:10.229Z,3.38
2017-12-03T16:30:37.406Z,3.39
2017-12-03T16:32:04.478Z,3.40
2017-12-03T16:33:31.638Z,3.39
2017-12-03T16:34:57.852Z,3.39
2017-12-03T16:36:26.080Z,3.39
2017-12-03T16:37:52.302Z,3.37
2017-12-03T16:39:20.481Z,3.37
2017-12-03T16:40:47.616Z,3.39
2017-12-03T16:42:13.831Z,3.40
2017-12-03T16:43:42.048Z,3.40
2017-12-03T16:45:09.122Z,3.40
2017-12-03T16:46:35.356Z,3.42
2017-12-03T16:48:03.296Z,3.43
2017-12-03T16:49:30.628Z,3.45
2017-12-03T16:50:56.912Z,3.45
2017-12-03T16:52:23.983Z,3.46
2017-12-03T16:53:52.231Z,3.48
2017-12-03T16:55:19.511Z,3.43
2017-12-03T16:56:45.900Z,3.43
2017-12-03T16:58:13.228Z,3.41
2017-12-03T16:59:41.144Z,3.38
2017-12-03T17:01:07.314Z,3.36
2017-12-03T17:02:34.395Z,3.38
2017-12-03T17:04:01.528Z,3.41
2017-12-03T17:05:29.771Z,3.40
2017-12-03T17:06:56.038Z,3.42
2017-12-03T17:08:24.286Z,3.46
2017-12-03T17:09:50.469Z,3.49
2017-12-03T17:11:17.725Z,3.52
2017-12-03T17:12:44.939Z,3.56
2017-12-03T17:14:13.261Z,3.60
2017-12-03T17:15:40.593Z,3.60
2017-12-03T17:17:06.760Z,3.62
2017-12-03T17:18:33.954Z,3.63
2017-12-03T17:20:02.125Z,3.66
2017-12-03T17:21:28.303Z,3.67
2017-12-03T17:22:55.653Z,3.63
2017-12-03T17:24:22.913Z,3.62
2017-12-03T17:25:50.280Z,3.64
2017-12-03T17:27:18.409Z,3.62
2017-12-03T17:28:44.553Z,3.60
2017-12-03T17:30:11.830Z,3.61
2017-12-03T17:31:40.039Z,3.63
2017-12-03T17:33:07.216Z,3.64
2017-12-03T17:34:33.314Z,3.65
2017-12-03T17:36:01.631Z,3.63
2017-12-03T17:37:28.930Z,3.64
2017-12-03T17:38:56.204Z,3.68
2017-12-03T17:40:22.131Z,3.68
2017-12-03T17:41:49.203Z,3.72
2017-12-03T17:43:16.452Z,3.77
2017-12-03T17:44:39.830Z,3.81
2017-12-03T17:46:12.063Z,3.82
2017-12-03T17:47:39.464Z,3.84
2017-12-03T17:49:06.502Z,3.87
2017-12-03T17:50:33.761Z,3.89
2017-12-03T17:52:00.145Z,3.90
2017-12-03T17:53:28.395Z,3.88
2017-12-03T17:54:54.532Z,3.90
2017-12-03T17:56:21.804Z,3.91
2017-12-03T17:57:50.152Z,3.93
2017-12-03T17:59:16.478Z,3.93
2017-12-03T18:00:43.701Z,3.94
2017-12-03T18:02:11.022Z,3.97
2017-12-03T18:03:38.189Z,4.00
2017-12-03T18:05:06.297Z,4.00
2017-12-03T18:06:32.516Z,4.03
2017-12-03T18:07:59.605Z,4.06
2017-12-03T18:09:27.732Z,4.09
2017-12-03T18:10:54.970Z,4.10
2017-12-03T18:12:22.066Z,4.10
2017-12-03T18:13:48.348Z,4.10
2017-12-03T18:15:15.496Z,4.12
2017-12-03T18:16:43.587Z,4.14
2017-12-03T18:18:09.810Z,4.17
2017-12-03T18:19:38.064Z,4.16
2017-12-03T18:21:03.858Z,4.18
2017-12-03T18:22:30.895Z,4.20
2017-12-03T18:23:58.155Z,4.21
2017-12-03T18:25:26.477Z,4.18
2017-12-03T18:26:53.575Z,4.18
2017-12-03T18:28:19.616Z,4.19
2017-12-03T18:29:46.700Z,4.18
2017-12-03T18:31:15.046Z,4.15
2017-12-03T18:32:42.152Z,4.13
2017-12-03T18:34:08.363Z,4.15
2017-12-03T18:35:36.565Z,4.16
2017-12-03T18:37:03.727Z,4.17
2017-12-03T18:38:29.959Z,4.18
2017-12-03T18:39:57.108Z,4.20
2017-12-03T18:41:24.332Z,4.21
2017-12-03T18:42:52.562Z,4.22
2017-12-03T18:44:19.778Z,4.21
2017-12-03T18:45:46.111Z,4.22
2017-12-03T18:47:14.562Z,4.20
2017-12-03T18:48:40.637Z,4.20
2017-12-03T18:50:08.978Z,4.21
2017-12-03T18:51:35.032Z,4.20
2017-12-03T18:53:02.194Z,4.21
2017-12-03T18:54:30.587Z,4.21
2017-12-03T18:55:57.569Z,4.18
2017-12-03T18:57:23.615Z,4.20
2017-12-03T18:58:51.772Z,4.19
2017-12-03T19:00:18.045Z,4.14
2017-12-03T19:01:45.318Z,4.12
2017-12-03T19:03:13.614Z,4.12
2017-12-03T19:04:39.769Z,4.09
2017-12-03T19:06:07.885Z,4.08
2017-12-03T19:07:34.056Z,4.06
2017-12-03T19:09:01.074Z,4.06
2017-12-03T19:10:28.397Z,4.07
2017-12-03T19:11:55.614Z,4.07
2017-12-03T19:13:22.852Z,4.08
2017-12-03T19:14:50.085Z,4.06
2017-12-03T19:16:17.221Z,4.05
2017-12-03T19:17:45.403Z,4.06
2017-12-03T19:19:11.590Z,4.07
2017-12-03T19:20:39.102Z,4.10